Hyattsville, Maryland
Current Conditions -  °F | °C
As of 12:00 PM on Tuesday 27 Jan 2015 (Local Time) from KCGS Reporting Station
Overcast Overcast  
Wind Chill: 25°   Ceiling: 2500
Heat Index: 32°   Visibility: 10mi
Dew Point: 25°   Wind: 8mph
Humidity: 75%   Direction: 320°NW
Pressure: 29.8"   Gusts: NA
Location:  38.95°N, 76.94°W
Report Text: KCGS 271700Z AUTO 32007KT 280V340 10SM BKN025 OVC060 00/M04 A2980 RMK AO1
Loading
Personal Weather Stations






























Interactive Weather Map New forecast layout! Learn more

10-Day Weather Forecast

Advertisements
Track Severe Weather on mobile